首页
METAR-TAF:

METAR-TAF

机场 :

Odiham, 英格兰

纬度: 51-14N, 经度: 000-57W, 海拔: 123米

当前天气观测

该预报发布于1小时和7分钟前的18:50 UTC
风速10节,风向南转西南
温度 12°C
湿度 88%
气压 1005 hPa
能见度10公里或以上
少量云层高于1900英尺

METAR: EGVO 151850Z 21010KT 9999 FEW019 12/10 Q1005 RMK BLU

时间: 20:57 (19:57 UTC)

预报

该预报发布于3小时和16分钟前的16:41 UTC
预报有效从15日的 18点(UTC)到 16日的 06点(UTC)
风速6节,风向南转西南
能见度10公里或以上
散云层高于3000英尺
成为
从 16日的 00点(UTC)到 16日的 03点(UTC)
多云层高于1000英尺
小雨
几率 30% :
短暂存在
从 16日的 02点(UTC)到 16日的 06点(UTC)
能見度: 4000
散云层高于600英尺

TAF: EGVO 151641Z 1518/1606 21006KT 9999 SCT030 BECMG 1600/1603 -RA BKN010 PROB30 TEMPO 1602/1606 4000 RA SCT006

超过4000个机场的气象观测和天气预报(METAR&TAF报告)。

可查询的气象台以黄色和红色小点在地图上表示。

将鼠标移到小点上方,可查看气象台名称。

然后点击查看天气观测和预报。

如需切换地图:点击带黑十字的绿色按钮放大地图;点击带横线的绿色按钮缩小地图;或者点击绿色箭头查看邻近地区的地图。


METAR-TAF: